createdAt,value
2022-11-01T00:01:50.359Z,93.30
2022-11-01T00:04:37.716Z,93.35
2022-11-01T00:07:08.491Z,93.02
2022-11-01T00:10:05.184Z,92.83
2022-11-01T00:12:36.184Z,93.24
2022-11-01T00:15:17.553Z,93.04
2022-11-01T00:18:08.764Z,92.79
2022-11-01T00:20:49.385Z,92.33
2022-11-01T00:23:32.369Z,92.40
2022-11-01T00:26:13.725Z,92.64
2022-11-01T00:31:57.099Z,92.27
2022-11-01T00:37:32.559Z,91.85
2022-11-01T00:40:00.803Z,91.27
2022-11-01T00:42:30.391Z,91.44
2022-11-01T00:44:59.763Z,91.12
2022-11-01T00:47:28.158Z,90.41
2022-11-01T00:49:56.371Z,90.35
2022-11-01T00:52:24.624Z,90.67
2022-11-01T00:54:52.841Z,90.09
2022-11-01T00:57:21.140Z,90.57
2022-11-01T00:59:50.788Z,89.93
2022-11-01T01:02:19.169Z,90.11
2022-11-01T01:04:48.941Z,89.26
2022-11-01T01:07:17.806Z,89.00
2022-11-01T01:09:45.997Z,89.00
2022-11-01T01:12:14.313Z,88.88
2022-11-01T01:14:42.522Z,88.70
2022-11-01T01:17:12.138Z,88.25
2022-11-01T01:19:40.551Z,88.33
2022-11-01T01:22:09.025Z,88.01
2022-11-01T01:24:37.416Z,87.48
2022-11-01T01:27:05.819Z,87.52
2022-11-01T01:29:35.101Z,87.14
2022-11-01T01:32:03.368Z,86.85
2022-11-01T01:34:35.859Z,86.68
2022-11-01T01:37:04.330Z,87.00
2022-11-01T01:39:32.564Z,86.52
2022-11-01T01:42:01.515Z,86.63
2022-11-01T01:45:18.278Z,86.34
2022-11-01T01:47:50.879Z,86.07
2022-11-01T01:50:28.617Z,86.11
2022-11-01T01:53:03.763Z,85.65
2022-11-01T01:55:38.514Z,85.16
2022-11-01T01:58:08.695Z,85.08
2022-11-01T02:00:37.149Z,85.06
2022-11-01T02:03:06.223Z,85.16
2022-11-01T02:05:45.620Z,84.84
2022-11-01T02:08:15.875Z,84.51
2022-11-01T02:10:44.678Z,84.45
2022-11-01T02:13:15.061Z,84.46
2022-11-01T02:16:09.552Z,84.50
2022-11-01T02:18:46.832Z,84.29
2022-11-01T02:21:58.344Z,83.88
2022-11-01T02:25:25.349Z,84.48
2022-11-01T02:28:20.427Z,84.11
2022-11-01T02:31:01.614Z,83.92
2022-11-01T02:33:35.406Z,84.00
2022-11-01T02:36:12.087Z,83.35
2022-11-01T02:38:47.310Z,83.83
2022-11-01T02:41:24.582Z,83.53
2022-11-01T02:43:57.478Z,83.46
2022-11-01T02:46:45.385Z,83.29
2022-11-01T02:49:18.928Z,83.05
2022-11-01T02:51:48.868Z,83.21
2022-11-01T02:54:23.047Z,82.87
2022-11-01T02:56:52.207Z,82.96
2022-11-01T02:59:25.964Z,82.98
2022-11-01T03:02:02.288Z,83.10
2022-11-01T03:04:32.322Z,83.02
2022-11-01T03:07:04.662Z,82.84
2022-11-01T03:09:34.947Z,82.86
2022-11-01T03:12:06.495Z,82.39
2022-11-01T03:14:44.635Z,82.68
2022-11-01T03:17:22.004Z,82.34
2022-11-01T03:19:57.955Z,82.41
2022-11-01T03:22:31.271Z,82.24
2022-11-01T03:25:29.456Z,82.44
2022-11-01T03:28:00.060Z,82.17
2022-11-01T03:30:31.306Z,82.30
2022-11-01T03:33:00.619Z,81.94
2022-11-01T03:35:36.232Z,82.03
2022-11-01T03:38:10.112Z,81.90
2022-11-01T03:40:45.823Z,82.10
2022-11-01T03:43:16.478Z,81.87
2022-11-01T03:45:45.184Z,81.80
2022-11-01T03:48:13.362Z,81.90
2022-11-01T03:50:49.372Z,81.75
2022-11-01T03:53:18.039Z,81.76
2022-11-01T03:55:46.244Z,81.47
2022-11-01T03:58:14.532Z,81.56
2022-11-01T04:00:46.067Z,81.80
2022-11-01T04:03:17.292Z,81.62
2022-11-01T04:05:46.909Z,81.61
2022-11-01T04:08:15.173Z,81.56
2022-11-01T04:10:44.714Z,81.81
2022-11-01T04:13:13.702Z,81.59
2022-11-01T04:15:59.711Z,81.79
2022-11-01T04:18:45.833Z,82.20
2022-11-01T04:21:18.286Z,82.24
2022-11-01T04:23:47.542Z,82.42
2022-11-01T04:26:18.663Z,82.57
2022-11-01T04:28:57.136Z,82.59
2022-11-01T04:31:27.400Z,83.11
2022-11-01T04:33:58.588Z,83.00
2022-11-01T04:36:28.632Z,83.23
2022-11-01T04:38:58.095Z,83.20
2022-11-01T04:41:29.224Z,83.17
2022-11-01T04:43:59.844Z,83.45
2022-11-01T04:46:31.429Z,83.57
2022-11-01T04:48:59.645Z,83.58
2022-11-01T04:51:29.386Z,83.91
2022-11-01T04:53:57.653Z,83.84
2022-11-01T04:56:25.775Z,83.74
2022-11-01T04:58:53.945Z,84.29
2022-11-01T05:01:22.324Z,84.42
2022-11-01T05:03:50.696Z,84.15
2022-11-01T05:06:18.978Z,84.21
2022-11-01T05:08:49.007Z,84.70
2022-11-01T05:11:17.272Z,84.77
2022-11-01T05:13:45.519Z,84.79
2022-11-01T05:16:19.392Z,84.88
2022-11-01T05:18:49.485Z,85.25
2022-11-01T05:21:19.982Z,85.09
2022-11-01T05:23:50.365Z,85.37
2022-11-01T05:26:18.533Z,85.81
2022-11-01T05:28:46.814Z,85.85
2022-11-01T05:31:15.317Z,86.10
2022-11-01T05:33:43.528Z,86.19
2022-11-01T05:36:11.736Z,86.04
2022-11-01T05:38:39.963Z,86.69
2022-11-01T05:41:10.307Z,87.03
2022-11-01T05:43:38.917Z,87.16
2022-11-01T05:46:08.941Z,87.04
2022-11-01T05:48:37.144Z,86.90
2022-11-01T05:51:09.229Z,86.95
2022-11-01T05:53:37.648Z,86.89
2022-11-01T05:56:06.218Z,87.11
2022-11-01T05:58:36.017Z,87.10
2022-11-01T06:01:07.368Z,87.05
2022-11-01T06:03:37.675Z,87.19
2022-11-01T06:06:06.703Z,86.96
2022-11-01T06:08:34.922Z,86.82
2022-11-01T06:11:03.999Z,86.46
2022-11-01T06:13:33.214Z,86.34
2022-11-01T06:16:04.870Z,86.28
2022-11-01T06:18:33.484Z,85.56
2022-11-01T06:21:01.606Z,85.26
2022-11-01T06:23:29.805Z,84.29
2022-11-01T06:26:02.746Z,83.70
2022-11-01T06:28:31.375Z,83.00
2022-11-01T06:33:37.255Z,81.78
2022-11-01T06:36:06.592Z,80.76
2022-11-01T06:38:35.248Z,80.23
2022-11-01T06:41:05.315Z,79.58
2022-11-01T06:43:33.544Z,79.03
2022-11-01T06:46:03.404Z,78.21
2022-11-01T06:48:31.742Z,77.21
2022-11-01T06:50:59.868Z,76.11
2022-11-01T06:53:28.151Z,75.60
2022-11-01T06:55:57.305Z,74.62
2022-11-01T06:58:25.542Z,74.67
2022-11-01T07:00:53.651Z,73.86
2022-11-01T07:03:23.430Z,73.43
2022-11-01T07:05:51.589Z,73.50
2022-11-01T07:08:19.879Z,73.36
2022-11-01T07:10:51.484Z,73.26
2022-11-01T07:13:19.721Z,72.99
2022-11-01T07:15:47.880Z,73.64
2022-11-01T07:18:23.338Z,73.76
2022-11-01T07:20:51.508Z,73.98
2022-11-01T07:23:20.093Z,74.84
2022-11-01T07:25:53.080Z,74.39
2022-11-01T07:28:21.388Z,74.72
2022-11-01T07:30:50.237Z,75.34
2022-11-01T07:33:18.790Z,75.32
2022-11-01T07:35:49.255Z,75.04
2022-11-01T07:38:17.973Z,74.69
2022-11-01T07:40:49.479Z,73.83
2022-11-01T07:43:18.890Z,73.24
2022-11-01T07:45:47.660Z,72.71
2022-11-01T07:48:18.852Z,72.41
2022-11-01T07:50:48.338Z,71.22
2022-11-01T07:53:19.139Z,71.07
2022-11-01T07:55:48.127Z,70.68
2022-11-01T07:58:17.769Z,70.16
2022-11-01T08:00:46.978Z,69.94
2022-11-01T08:03:17.254Z,69.71
2022-11-01T08:05:48.098Z,69.33
2022-11-01T08:08:17.425Z,69.19
2022-11-01T08:10:46.077Z,69.42
2022-11-01T08:13:18.581Z,69.17
2022-11-01T08:15:47.329Z,69.24
2022-11-01T08:18:16.298Z,69.11
2022-11-01T08:20:44.588Z,68.53
2022-11-01T08:23:14.384Z,68.30
2022-11-01T08:25:42.658Z,68.38
2022-11-01T08:28:18.660Z,67.85
2022-11-01T08:30:50.384Z,67.63
2022-11-01T08:33:18.833Z,67.16
2022-11-01T08:35:50.498Z,66.79
2022-11-01T08:38:20.753Z,65.85
2022-11-01T08:40:49.148Z,65.53
2022-11-01T08:43:17.978Z,65.34
2022-11-01T08:45:46.197Z,64.72
2022-11-01T08:48:14.656Z,64.09
2022-11-01T08:50:43.132Z,64.07
2022-11-01T08:53:14.297Z,63.59
2022-11-01T08:55:43.921Z,63.08
2022-11-01T08:58:12.281Z,62.69
2022-11-01T09:00:40.455Z,62.24
2022-11-01T09:03:08.629Z,61.75
2022-11-01T09:05:37.454Z,61.70
2022-11-01T09:08:06.531Z,61.35
2022-11-01T09:10:35.352Z,61.25
2022-11-01T09:13:05.171Z,60.78
2022-11-01T09:15:33.831Z,60.38
2022-11-01T09:18:07.228Z,60.30
2022-11-01T09:20:35.561Z,60.41
2022-11-01T09:23:04.273Z,60.38
2022-11-01T09:25:32.775Z,60.66
2022-11-01T09:28:01.030Z,60.81
2022-11-01T09:30:31.025Z,60.23
2022-11-01T09:32:59.350Z,60.54
2022-11-01T09:35:28.201Z,60.64
2022-11-01T09:37:59.430Z,60.54
2022-11-01T09:40:29.229Z,60.81
2022-11-01T09:43:01.765Z,60.79
2022-11-01T09:45:34.467Z,60.45
2022-11-01T09:48:05.826Z,60.22
2022-11-01T09:50:38.193Z,60.62
2022-11-01T09:53:15.641Z,60.63
2022-11-01T09:55:50.642Z,60.89
2022-11-01T09:58:31.410Z,60.94
2022-11-01T10:01:18.398Z,61.27
2022-11-01T10:04:07.589Z,61.07
2022-11-01T10:06:41.400Z,61.42
2022-11-01T10:09:20.589Z,61.62
2022-11-01T10:12:09.617Z,61.83
2022-11-01T10:15:02.033Z,61.87
2022-11-01T10:17:52.489Z,62.06
2022-11-01T10:20:27.243Z,62.14
2022-11-01T10:22:55.904Z,61.90
2022-11-01T10:25:26.256Z,61.67
2022-11-01T10:28:04.768Z,61.41
2022-11-01T10:30:40.054Z,61.00
2022-11-01T10:33:27.150Z,60.86
2022-11-01T10:35:59.915Z,60.95
2022-11-01T10:41:33.532Z,60.30
2022-11-01T10:44:05.238Z,60.03
2022-11-01T10:46:39.930Z,60.07
2022-11-01T10:49:24.568Z,60.54
2022-11-01T10:51:56.094Z,60.17
2022-11-01T10:54:28.024Z,60.24
2022-11-01T10:57:01.643Z,60.09
2022-11-01T10:59:36.459Z,59.71
2022-11-01T11:02:15.290Z,59.94
2022-11-01T11:04:45.053Z,60.01
2022-11-01T11:07:19.746Z,60.38
2022-11-01T11:09:51.129Z,60.28
2022-11-01T11:12:22.174Z,60.17
2022-11-01T11:14:54.586Z,60.21
2022-11-01T11:17:28.869Z,60.30
2022-11-01T11:20:04.822Z,60.50
2022-11-01T11:22:38.045Z,60.76
2022-11-01T11:25:08.788Z,60.08
2022-11-01T11:27:37.358Z,60.39
2022-11-01T11:30:08.681Z,60.21
2022-11-01T11:32:39.652Z,60.79
2022-11-01T11:35:19.206Z,60.56
2022-11-01T11:37:56.096Z,60.49
2022-11-01T11:40:25.966Z,61.02
2022-11-01T11:42:56.747Z,61.07
2022-11-01T11:45:29.508Z,61.27
2022-11-01T11:48:00.309Z,61.42
2022-11-01T11:50:36.006Z,61.54
2022-11-01T11:53:07.875Z,61.43
2022-11-01T11:55:43.756Z,61.59
2022-11-01T11:58:27.764Z,61.26
2022-11-01T12:01:02.554Z,61.09
2022-11-01T12:03:31.325Z,61.45
2022-11-01T12:06:07.563Z,61.52
2022-11-01T12:08:47.225Z,61.58
2022-11-01T12:11:19.048Z,61.54
2022-11-01T12:14:01.761Z,61.77
2022-11-01T12:16:30.420Z,61.04
2022-11-01T12:19:00.657Z,60.93
2022-11-01T12:21:35.963Z,60.92
2022-11-01T12:24:20.013Z,60.81
2022-11-01T12:26:51.378Z,60.46
2022-11-01T12:29:30.161Z,59.98
2022-11-01T12:32:04.661Z,60.14
2022-11-01T12:34:39.844Z,60.59
2022-11-01T12:37:20.620Z,60.12
2022-11-01T12:39:55.617Z,59.62
2022-11-01T12:42:30.919Z,58.89
2022-11-01T12:45:07.482Z,58.09
2022-11-01T12:47:42.721Z,56.92
2022-11-01T12:50:21.011Z,56.16
2022-11-01T12:52:56.304Z,56.21
2022-11-01T12:55:33.306Z,55.97
2022-11-01T12:58:03.438Z,55.22
2022-11-01T13:00:44.034Z,54.14
2022-11-01T13:03:29.967Z,53.77
2022-11-01T13:06:05.809Z,53.82
2022-11-01T13:08:45.670Z,53.05
2022-11-01T13:11:24.900Z,53.61
2022-11-01T13:14:08.026Z,53.79
2022-11-01T13:16:43.537Z,54.81
2022-11-01T13:19:19.744Z,55.33
2022-11-01T13:21:54.397Z,55.82
2022-11-01T13:24:31.032Z,56.40
2022-11-01T13:27:08.294Z,56.31
2022-11-01T13:29:45.435Z,55.96
2022-11-01T13:32:22.891Z,56.35
2022-11-01T13:35:22.802Z,56.11
2022-11-01T13:37:58.326Z,56.92
2022-11-01T13:40:36.521Z,56.78
2022-11-01T13:43:12.001Z,57.15
2022-11-01T13:46:41.643Z,57.28
2022-11-01T13:49:41.812Z,57.97
2022-11-01T13:52:17.539Z,58.14
2022-11-01T13:54:54.257Z,57.86
2022-11-01T13:57:26.149Z,58.31
2022-11-01T13:59:58.106Z,58.40
2022-11-01T14:03:00.167Z,58.69
2022-11-01T14:05:39.783Z,58.86
2022-11-01T14:08:28.736Z,59.09
2022-11-01T14:10:57.703Z,59.29
2022-11-01T14:13:48.404Z,59.55
2022-11-01T14:16:22.692Z,59.60
2022-11-01T14:19:20.775Z,59.86
2022-11-01T14:21:54.046Z,59.55
2022-11-01T14:24:34.533Z,59.92
2022-11-01T14:27:24.656Z,59.70
2022-11-01T14:29:58.153Z,59.82
2022-11-01T14:32:30.214Z,59.78
2022-11-01T14:35:05.156Z,60.02
2022-11-01T14:37:42.535Z,59.92
2022-11-01T14:40:33.220Z,60.30
2022-11-01T14:43:18.756Z,60.07
2022-11-01T14:45:54.002Z,59.92
2022-11-01T14:48:29.741Z,60.03
2022-11-01T14:51:04.647Z,59.97
2022-11-01T14:53:37.325Z,59.99
2022-11-01T14:56:17.134Z,60.20
2022-11-01T14:58:45.777Z,60.46
2022-11-01T15:01:18.587Z,60.37
2022-11-01T15:03:55.608Z,60.50
2022-11-01T15:06:25.674Z,60.81
2022-11-01T15:08:58.474Z,60.74
2022-11-01T15:11:29.659Z,60.72
2022-11-01T15:13:59.999Z,60.94
2022-11-01T15:16:30.151Z,60.90
2022-11-01T15:19:02.585Z,61.18
2022-11-01T15:21:31.604Z,61.40
2022-11-01T15:24:02.768Z,61.53
2022-11-01T15:26:34.170Z,61.87
2022-11-01T15:29:05.825Z,62.08
2022-11-01T15:31:36.247Z,62.18
2022-11-01T15:34:19.910Z,62.49
2022-11-01T15:36:48.180Z,62.84
2022-11-01T15:39:22.611Z,63.13
2022-11-01T15:41:52.207Z,63.55
2022-11-01T15:44:23.361Z,63.69
2022-11-01T15:46:55.717Z,64.08
2022-11-01T15:49:28.281Z,64.29
2022-11-01T15:52:01.551Z,64.60
2022-11-01T15:54:42.667Z,64.72
2022-11-01T15:57:19.835Z,65.12
2022-11-01T15:59:57.451Z,65.47
2022-11-01T16:02:33.011Z,65.55
2022-11-01T16:05:02.175Z,65.68
2022-11-01T16:07:33.472Z,65.51
2022-11-01T16:10:03.674Z,65.68
2022-11-01T16:12:38.469Z,66.00
2022-11-01T16:15:09.838Z,66.17
2022-11-01T16:17:43.219Z,66.19
2022-11-01T16:20:31.284Z,65.73
2022-11-01T16:23:01.073Z,65.68
2022-11-01T16:25:31.652Z,65.98
2022-11-01T16:28:07.479Z,66.08
2022-11-01T16:30:48.188Z,65.86
2022-11-01T16:33:31.138Z,65.95
2022-11-01T16:36:01.625Z,65.82
2022-11-01T16:38:44.227Z,66.00
2022-11-01T16:41:21.275Z,65.42
2022-11-01T16:43:53.951Z,65.64
2022-11-01T16:46:24.213Z,65.82
2022-11-01T16:48:56.748Z,65.59
2022-11-01T16:51:28.938Z,65.64
2022-11-01T16:53:58.601Z,65.67
2022-11-01T16:56:37.846Z,66.01
2022-11-01T16:59:10.124Z,66.08
2022-11-01T17:01:39.470Z,66.29
2022-11-01T17:04:14.140Z,66.69
2022-11-01T17:06:42.461Z,66.74
2022-11-01T17:09:15.807Z,66.95
2022-11-01T17:11:50.837Z,67.34
2022-11-01T17:14:20.934Z,66.83
2022-11-01T17:16:51.662Z,67.54
2022-11-01T17:19:26.512Z,67.51
2022-11-01T17:21:56.364Z,67.64
2022-11-01T17:24:27.194Z,68.32
2022-11-01T17:27:00.158Z,68.01
2022-11-01T17:29:29.520Z,68.01
2022-11-01T17:31:57.714Z,68.13
2022-11-01T17:34:28.878Z,68.96
2022-11-01T17:36:58.534Z,68.91
2022-11-01T17:39:29.552Z,68.82
2022-11-01T17:41:58.071Z,69.33
2022-11-01T17:44:26.933Z,69.17
2022-11-01T17:46:55.221Z,69.75
2022-11-01T17:49:24.568Z,69.64
2022-11-01T17:51:55.287Z,69.99
2022-11-01T17:56:52.277Z,69.98
2022-11-01T17:59:20.732Z,70.35
2022-11-01T18:01:49.064Z,70.27
2022-11-01T18:04:17.685Z,70.69
2022-11-01T18:06:46.597Z,70.13
2022-11-01T18:09:24.625Z,70.42
2022-11-01T18:12:01.100Z,70.33
2022-11-01T18:14:49.355Z,70.68
2022-11-01T18:17:39.892Z,70.73
2022-11-01T18:20:21.966Z,70.53
2022-11-01T18:22:55.535Z,70.70
2022-11-01T18:25:32.560Z,70.88
2022-11-01T18:28:02.621Z,71.54
2022-11-01T18:30:31.801Z,71.04
2022-11-01T18:33:04.567Z,70.94
2022-11-01T18:35:38.756Z,71.34
2022-11-01T18:38:29.487Z,71.18
2022-11-01T18:41:02.104Z,71.03
2022-11-01T18:43:34.321Z,71.29
2022-11-01T18:46:23.761Z,71.46
2022-11-01T18:49:00.733Z,71.83
2022-11-01T18:51:32.514Z,71.44
2022-11-01T18:54:23.093Z,71.29
2022-11-01T18:56:55.191Z,71.91
2022-11-01T18:59:30.169Z,71.79
2022-11-01T19:02:03.055Z,71.80
2022-11-01T19:04:36.680Z,71.62
2022-11-01T19:07:13.648Z,71.30
2022-11-01T19:09:44.698Z,71.97
2022-11-01T19:12:17.292Z,71.30
2022-11-01T19:14:48.717Z,72.02
2022-11-01T19:17:24.572Z,71.57
2022-11-01T19:19:53.761Z,71.49
2022-11-01T19:22:37.916Z,71.74
2022-11-01T19:25:20.134Z,71.67
2022-11-01T19:27:52.833Z,71.18
2022-11-01T19:30:25.844Z,71.14
2022-11-01T19:32:57.667Z,71.38
2022-11-01T19:35:26.108Z,71.36
2022-11-01T19:37:56.500Z,71.48
2022-11-01T19:40:28.524Z,71.56
2022-11-01T19:43:01.642Z,70.97
2022-11-01T19:45:34.295Z,71.13
2022-11-01T19:48:04.690Z,71.32
2022-11-01T19:50:39.468Z,71.91
2022-11-01T19:53:22.072Z,71.89
2022-11-01T19:55:54.207Z,71.86
2022-11-01T19:58:30.069Z,71.97
2022-11-01T20:01:41.663Z,72.38
2022-11-01T20:04:27.170Z,72.20
2022-11-01T20:07:01.040Z,72.19
2022-11-01T20:09:36.567Z,71.87
2022-11-01T20:12:05.177Z,71.90
2022-11-01T20:14:35.320Z,71.79
2022-11-01T20:17:03.702Z,72.09
2022-11-01T20:19:32.288Z,72.37
2022-11-01T20:22:00.570Z,72.35
2022-11-01T20:24:30.332Z,72.19
2022-11-01T20:26:59.670Z,71.82
2022-11-01T20:29:27.843Z,71.86
2022-11-01T20:31:57.414Z,72.34
2022-11-01T20:34:27.251Z,71.99
2022-11-01T20:37:26.983Z,72.35
2022-11-01T20:39:43.814Z,71.92
2022-11-01T20:42:12.016Z,72.46
2022-11-01T20:44:40.325Z,72.45
2022-11-01T20:47:09.934Z,72.26
2022-11-01T20:49:38.122Z,71.80
2022-11-01T20:52:34.036Z,71.81
2022-11-01T20:54:54.804Z,71.78
2022-11-01T20:57:28.189Z,72.03
2022-11-01T20:59:57.264Z,71.78
2022-11-01T21:02:28.024Z,71.73
2022-11-01T21:05:02.131Z,71.69
2022-11-01T21:07:31.848Z,72.14
2022-11-01T21:10:00.097Z,72.07
2022-11-01T21:12:43.774Z,71.84
2022-11-01T21:15:35.001Z,71.29
2022-11-01T21:18:41.854Z,71.43
2022-11-01T21:21:32.548Z,71.87
2022-11-01T21:24:03.508Z,71.80
2022-11-01T21:26:35.876Z,72.10
2022-11-01T21:29:07.980Z,71.62
2022-11-01T21:31:40.114Z,72.09
2022-11-01T21:34:26.586Z,72.06
2022-11-01T21:36:55.296Z,71.45
2022-11-01T21:39:26.977Z,71.67
2022-11-01T21:41:57.536Z,71.58
2022-11-01T21:44:29.418Z,71.60
2022-11-01T21:47:02.482Z,71.55
2022-11-01T21:49:33.930Z,72.10
2022-11-01T21:52:05.552Z,72.00
2022-11-01T21:54:37.682Z,71.43
2022-11-01T21:57:08.451Z,71.37
2022-11-01T21:59:37.406Z,71.22
2022-11-01T22:02:09.500Z,71.16
2022-11-01T22:04:39.253Z,71.48
2022-11-01T22:07:09.677Z,70.89
2022-11-01T22:09:38.847Z,71.43
2022-11-01T22:12:08.218Z,70.87
2022-11-01T22:14:37.400Z,70.83
2022-11-01T22:17:05.777Z,70.56
2022-11-01T22:19:33.928Z,70.77
2022-11-01T22:22:03.458Z,71.10
2022-11-01T22:24:31.625Z,70.82
2022-11-01T22:27:00.191Z,70.87
2022-11-01T22:29:28.397Z,70.95
2022-11-01T22:31:56.593Z,70.42
2022-11-01T22:34:24.780Z,70.86
2022-11-01T22:36:53.020Z,71.20
2022-11-01T22:39:26.668Z,71.86
2022-11-01T22:41:55.662Z,71.90
2022-11-01T22:44:28.006Z,72.53
2022-11-01T22:46:59.273Z,72.54
2022-11-01T22:49:30.378Z,72.80
2022-11-01T22:52:02.916Z,73.21
2022-11-01T22:54:39.942Z,72.89
2022-11-01T22:57:19.094Z,73.88
2022-11-01T22:59:51.285Z,73.51
2022-11-01T23:02:28.121Z,73.97
2022-11-01T23:05:21.721Z,74.14
2022-11-01T23:07:51.531Z,74.60
2022-11-01T23:10:30.920Z,74.49
2022-11-01T23:13:39.582Z,74.73
2022-11-01T23:16:23.523Z,74.14
2022-11-01T23:18:53.687Z,74.66
2022-11-01T23:21:23.357Z,74.90
2022-11-01T23:23:51.995Z,74.73
2022-11-01T23:26:22.315Z,74.70
2022-11-01T23:28:53.507Z,75.60
2022-11-01T23:31:23.414Z,75.42
2022-11-01T23:33:52.144Z,74.92
2022-11-01T23:36:24.105Z,75.46
2022-11-01T23:38:56.386Z,75.80
2022-11-01T23:41:31.211Z,75.98
2022-11-01T23:44:01.610Z,75.93
2022-11-01T23:46:30.446Z,76.13
2022-11-01T23:49:03.374Z,76.66
2022-11-01T23:51:32.247Z,76.56
2022-11-01T23:54:01.101Z,76.85
2022-11-01T23:56:31.644Z,77.35
2022-11-01T23:59:04.906Z,76.98
